createdAt,value
2019-03-29T00:01:08.444Z,4.05
2019-03-29T00:03:14.418Z,3.30
2019-03-29T00:05:20.383Z,4.33
2019-03-29T00:07:39.058Z,3.30
2019-03-29T00:09:34.943Z,2.90
2019-03-29T00:11:41.109Z,2.90
2019-03-29T00:13:47.221Z,3.20
2019-03-29T00:15:53.178Z,3.90
2019-03-29T00:17:59.146Z,4.37
2019-03-29T00:20:06.256Z,3.83
2019-03-29T00:22:12.436Z,3.40
2019-03-29T00:24:18.536Z,3.42
2019-03-29T00:26:25.591Z,3.50
2019-03-29T00:28:31.780Z,2.90
2019-03-29T00:30:37.895Z,3.35
2019-03-29T00:32:46.000Z,3.60
2019-03-29T00:34:51.966Z,3.62
2019-03-29T00:36:57.963Z,3.80
2019-03-29T00:39:05.855Z,3.30
2019-03-29T00:41:11.830Z,3.40
2019-03-29T00:43:17.822Z,3.83
2019-03-29T00:45:23.790Z,3.67
2019-03-29T00:47:30.050Z,2.95
2019-03-29T00:49:36.058Z,3.72
2019-03-29T00:51:42.242Z,4.35
2019-03-29T00:53:48.317Z,3.15
2019-03-29T00:55:54.362Z,3.12
2019-03-29T00:58:00.359Z,2.87
2019-03-29T01:00:07.014Z,2.33
2019-03-29T01:02:13.202Z,3.25
2019-03-29T01:04:19.225Z,3.17
2019-03-29T01:06:25.220Z,2.80
2019-03-29T01:08:31.247Z,2.67
2019-03-29T01:10:37.493Z,2.90
2019-03-29T01:12:44.896Z,3.80
2019-03-29T01:14:50.949Z,4.20
2019-03-29T01:16:57.043Z,3.65
2019-03-29T01:19:03.919Z,3.42
2019-03-29T01:21:10.082Z,4.15
2019-03-29T01:23:16.057Z,3.12
2019-03-29T01:25:22.086Z,3.45
2019-03-29T01:27:28.087Z,3.02
2019-03-29T01:29:34.100Z,4.10
2019-03-29T01:31:40.220Z,3.70
2019-03-29T01:33:47.053Z,3.30
2019-03-29T01:35:53.083Z,3.17
2019-03-29T01:37:59.074Z,3.08
2019-03-29T01:40:05.777Z,2.70
2019-03-29T01:42:11.788Z,3.30
2019-03-29T01:44:20.055Z,2.60
2019-03-29T01:46:26.158Z,2.60
2019-03-29T01:48:32.147Z,3.52
2019-03-29T01:50:38.171Z,3.55
2019-03-29T01:52:45.837Z,3.77
2019-03-29T01:54:52.141Z,4.35
2019-03-29T01:56:58.155Z,3.77
2019-03-29T01:59:04.131Z,3.58
2019-03-29T02:01:10.194Z,3.25
2019-03-29T02:03:16.197Z,3.00
2019-03-29T02:05:22.159Z,3.00
2019-03-29T02:07:28.206Z,3.22
2019-03-29T02:09:34.174Z,2.77
2019-03-29T02:11:40.384Z,3.22
2019-03-29T02:13:47.043Z,4.15
2019-03-29T02:15:53.011Z,3.37
2019-03-29T02:17:58.997Z,3.80
2019-03-29T02:20:05.602Z,3.25
2019-03-29T02:22:11.575Z,3.15
2019-03-29T02:24:17.555Z,4.20
2019-03-29T02:26:23.612Z,3.22
2019-03-29T02:28:29.673Z,5.42
2019-03-29T02:30:35.726Z,4.15
2019-03-29T02:32:41.760Z,2.65
2019-03-29T02:34:48.005Z,3.27
2019-03-29T02:36:55.195Z,3.35
2019-03-29T02:39:02.519Z,3.42
2019-03-29T02:41:08.533Z,2.98
2019-03-29T02:43:14.583Z,3.40
2019-03-29T02:45:22.912Z,4.75
2019-03-29T02:47:28.898Z,3.17
2019-03-29T02:49:34.881Z,3.37
2019-03-29T02:51:40.872Z,3.15
2019-03-29T02:53:48.056Z,3.90
2019-03-29T02:55:54.188Z,3.35
2019-03-29T02:58:00.258Z,3.67
2019-03-29T03:00:07.307Z,3.42
2019-03-29T03:02:13.314Z,3.60
2019-03-29T03:04:19.305Z,3.85
2019-03-29T03:06:25.316Z,3.30
2019-03-29T03:08:33.086Z,3.10
2019-03-29T03:10:39.042Z,4.03
2019-03-29T03:12:45.099Z,3.42
2019-03-29T03:14:51.143Z,2.75
2019-03-29T03:16:57.105Z,3.47
2019-03-29T03:19:03.141Z,4.08
2019-03-29T03:21:09.190Z,4.12
2019-03-29T03:23:15.263Z,3.60
2019-03-29T03:25:21.282Z,3.60
2019-03-29T03:27:27.248Z,3.42
2019-03-29T03:29:33.227Z,3.40
2019-03-29T03:31:39.217Z,3.02
2019-03-29T03:33:45.236Z,2.92
2019-03-29T03:35:54.343Z,2.95
2019-03-29T03:38:00.314Z,3.77
2019-03-29T03:40:07.062Z,3.20
2019-03-29T03:42:13.087Z,2.80
2019-03-29T03:44:19.161Z,3.08
2019-03-29T03:46:25.200Z,3.60
2019-03-29T03:48:31.196Z,3.60
2019-03-29T03:50:41.658Z,3.30
2019-03-29T03:52:47.670Z,2.62
2019-03-29T03:54:53.689Z,3.10
2019-03-29T03:57:00.522Z,3.30
2019-03-29T03:59:06.664Z,3.60
2019-03-29T04:01:12.648Z,3.05
2019-03-29T04:03:18.672Z,3.12
2019-03-29T04:05:24.715Z,2.92
2019-03-29T04:07:33.481Z,3.20
2019-03-29T04:09:49.530Z,3.58
2019-03-29T04:11:46.031Z,3.30
2019-03-29T04:13:53.667Z,2.67
2019-03-29T04:15:59.623Z,3.33
2019-03-29T04:18:05.670Z,3.27
2019-03-29T04:20:11.659Z,3.33
2019-03-29T04:22:17.716Z,3.05
2019-03-29T04:24:23.691Z,3.17
2019-03-29T04:26:29.696Z,3.60
2019-03-29T04:28:35.731Z,4.58
2019-03-29T04:30:41.760Z,3.35
2019-03-29T04:32:47.714Z,3.12
2019-03-29T04:34:53.682Z,3.40
2019-03-29T04:37:02.061Z,4.00
2019-03-29T04:39:08.134Z,4.10
2019-03-29T04:41:14.094Z,3.58
2019-03-29T04:43:20.052Z,3.70
2019-03-29T04:45:26.075Z,3.80
2019-03-29T04:47:32.027Z,4.28
2019-03-29T04:49:37.983Z,3.50
2019-03-29T04:51:45.925Z,4.12
2019-03-29T04:53:52.065Z,3.42
2019-03-29T04:55:58.065Z,3.25
2019-03-29T04:58:05.555Z,4.33
2019-03-29T05:00:11.732Z,3.02
2019-03-29T05:02:17.972Z,3.40
2019-03-29T05:04:24.634Z,3.90
2019-03-29T05:06:30.578Z,3.45
2019-03-29T05:08:36.558Z,4.03
2019-03-29T05:10:42.733Z,3.92
2019-03-29T05:12:48.799Z,3.08
2019-03-29T05:14:57.263Z,3.62
2019-03-29T05:17:03.650Z,4.60
2019-03-29T05:19:11.407Z,4.10
2019-03-29T05:21:19.975Z,4.47
2019-03-29T05:23:26.109Z,3.40
2019-03-29T05:25:32.161Z,3.80
2019-03-29T05:27:38.147Z,3.77
2019-03-29T05:29:44.244Z,3.37
2019-03-29T05:31:53.702Z,3.90
2019-03-29T05:33:59.470Z,4.30
2019-03-29T05:36:05.569Z,3.33
2019-03-29T05:38:13.083Z,3.77
2019-03-29T05:40:19.590Z,4.08
2019-03-29T05:42:26.317Z,3.60
2019-03-29T05:44:35.202Z,4.00
2019-03-29T05:46:42.955Z,3.47
2019-03-29T05:48:48.918Z,4.45
2019-03-29T05:50:55.034Z,4.12
2019-03-29T05:53:01.075Z,4.72
2019-03-29T05:55:07.231Z,4.10
2019-03-29T05:57:14.362Z,3.95
2019-03-29T05:59:20.457Z,4.30
2019-03-29T06:01:27.990Z,4.10
2019-03-29T06:03:33.967Z,4.30
2019-03-29T06:05:39.974Z,4.30
2019-03-29T06:07:47.551Z,4.40
2019-03-29T06:10:04.750Z,4.87
2019-03-29T06:12:10.786Z,4.33
2019-03-29T06:14:17.975Z,4.05
2019-03-29T06:16:23.974Z,4.25
2019-03-29T06:18:30.169Z,4.33
2019-03-29T06:20:36.778Z,3.47
2019-03-29T06:22:42.974Z,3.65
2019-03-29T06:24:49.216Z,4.70
2019-03-29T06:26:55.370Z,4.50
2019-03-29T06:29:03.854Z,5.40
2019-03-29T06:31:09.863Z,5.10
2019-03-29T06:33:15.869Z,4.80
2019-03-29T06:35:22.854Z,4.83
2019-03-29T06:37:32.427Z,4.00
2019-03-29T06:39:40.211Z,6.35
2019-03-29T06:41:46.194Z,6.40
2019-03-29T06:43:52.168Z,5.10
2019-03-29T06:45:58.174Z,4.45
2019-03-29T06:48:04.166Z,4.80
2019-03-29T06:50:10.142Z,5.30
2019-03-29T06:52:16.138Z,5.67
2019-03-29T06:54:22.261Z,6.22
2019-03-29T06:56:31.099Z,5.28
2019-03-29T06:58:37.196Z,4.40
2019-03-29T07:00:46.599Z,5.17
2019-03-29T07:02:51.026Z,4.60
2019-03-29T07:04:57.013Z,5.00
2019-03-29T07:07:03.106Z,4.70
2019-03-29T07:09:09.111Z,5.10
2019-03-29T07:11:17.524Z,4.62
2019-03-29T07:13:22.785Z,5.12
2019-03-29T07:15:30.035Z,4.65
2019-03-29T07:17:36.017Z,5.78
2019-03-29T07:19:44.257Z,5.55
2019-03-29T07:21:52.632Z,4.50
2019-03-29T07:23:58.703Z,5.28
2019-03-29T07:26:05.342Z,4.70
2019-03-29T07:28:11.322Z,5.03
2019-03-29T07:30:17.589Z,5.03
2019-03-29T07:32:23.823Z,4.20
2019-03-29T07:34:33.084Z,6.65
2019-03-29T07:36:39.158Z,5.10
2019-03-29T07:38:45.171Z,4.15
2019-03-29T07:40:51.161Z,5.72
2019-03-29T07:42:57.443Z,5.33
2019-03-29T07:45:03.458Z,5.42
2019-03-29T07:47:09.445Z,4.67
2019-03-29T07:49:15.511Z,5.53
2019-03-29T07:51:21.606Z,5.05
2019-03-29T07:53:27.458Z,4.90
2019-03-29T07:55:33.254Z,5.90
2019-03-29T07:57:38.929Z,5.37
2019-03-29T07:59:45.492Z,4.80
2019-03-29T08:01:51.428Z,5.80
2019-03-29T08:03:57.358Z,5.20
2019-03-29T08:06:03.288Z,5.33
2019-03-29T08:08:22.790Z,5.03
2019-03-29T08:10:24.539Z,5.70
2019-03-29T08:12:25.320Z,5.60
2019-03-29T08:14:31.514Z,5.13
2019-03-29T08:16:37.429Z,5.53
2019-03-29T08:18:43.973Z,5.17
2019-03-29T08:20:50.406Z,5.80
2019-03-29T08:22:59.879Z,5.40
2019-03-29T08:25:05.719Z,4.90
2019-03-29T08:27:12.287Z,4.83
2019-03-29T08:29:19.162Z,4.90
2019-03-29T08:31:26.484Z,4.40
2019-03-29T08:33:33.435Z,5.43
2019-03-29T08:35:44.687Z,4.53
2019-03-29T08:37:51.167Z,4.77
2019-03-29T08:39:58.050Z,5.25
2019-03-29T08:42:06.067Z,4.58
2019-03-29T08:44:17.976Z,4.70
2019-03-29T08:46:25.000Z,5.33
2019-03-29T08:48:31.290Z,6.15
2019-03-29T08:50:38.334Z,5.92
2019-03-29T08:52:47.593Z,6.35
2019-03-29T08:54:54.331Z,5.60
2019-03-29T08:57:00.810Z,5.70
2019-03-29T08:59:08.250Z,5.92
2019-03-29T09:01:19.946Z,6.40
2019-03-29T09:03:26.721Z,6.80
2019-03-29T09:05:33.169Z,7.10
2019-03-29T09:07:45.076Z,7.08
2019-03-29T09:09:49.395Z,6.90
2019-03-29T09:11:56.539Z,6.08
2019-03-29T09:14:02.934Z,5.60
2019-03-29T09:16:09.799Z,5.75
2019-03-29T09:18:17.126Z,5.65
2019-03-29T09:20:23.362Z,5.20
2019-03-29T09:22:29.589Z,4.83
2019-03-29T09:24:36.119Z,5.30
2019-03-29T09:26:44.930Z,5.57
2019-03-29T09:28:50.387Z,5.80
2019-03-29T09:30:56.772Z,6.50
2019-03-29T09:33:02.672Z,6.33
2019-03-29T09:35:08.603Z,5.30
2019-03-29T09:37:16.002Z,6.33
2019-03-29T09:39:21.842Z,5.53
2019-03-29T09:41:27.542Z,6.10
2019-03-29T09:43:33.254Z,6.70
2019-03-29T09:45:43.322Z,5.50
2019-03-29T09:47:49.372Z,6.60
2019-03-29T09:49:59.624Z,5.83
2019-03-29T09:52:05.327Z,5.17
2019-03-29T09:54:11.050Z,5.30
2019-03-29T09:56:16.823Z,5.67
2019-03-29T09:58:22.539Z,6.60
2019-03-29T10:00:28.218Z,6.13
2019-03-29T10:02:33.972Z,6.47
2019-03-29T10:04:39.751Z,6.70
2019-03-29T10:06:45.471Z,6.43
2019-03-29T10:08:53.294Z,7.13
2019-03-29T10:11:00.524Z,7.17
2019-03-29T10:13:06.067Z,6.33
2019-03-29T10:15:11.761Z,6.90
2019-03-29T10:17:17.502Z,6.30
2019-03-29T10:19:23.299Z,6.10
2019-03-29T10:21:29.263Z,6.27
2019-03-29T10:23:35.186Z,6.43
2019-03-29T10:25:40.934Z,6.40
2019-03-29T10:27:46.624Z,6.57
2019-03-29T10:29:52.331Z,6.57
2019-03-29T10:31:58.078Z,7.20
2019-03-29T10:34:03.984Z,6.23
2019-03-29T10:36:09.754Z,4.87
2019-03-29T10:38:18.263Z,6.53
2019-03-29T10:40:22.845Z,7.00
2019-03-29T10:42:28.559Z,7.07
2019-03-29T10:44:34.282Z,5.63
2019-03-29T10:46:40.003Z,8.50
2019-03-29T10:48:45.699Z,6.40
2019-03-29T10:50:51.384Z,8.27
2019-03-29T10:52:57.094Z,8.93
2019-03-29T10:55:02.892Z,7.40
2019-03-29T10:57:10.860Z,6.20
2019-03-29T10:59:27.795Z,6.50
2019-03-29T11:01:39.321Z,6.63
2019-03-29T11:03:45.146Z,6.90
2019-03-29T11:05:50.990Z,7.20
2019-03-29T11:07:56.694Z,7.60
2019-03-29T11:10:02.490Z,7.50
2019-03-29T11:12:08.281Z,7.00
2019-03-29T11:14:14.156Z,6.70
2019-03-29T11:16:19.973Z,7.13
2019-03-29T11:18:25.722Z,6.67
2019-03-29T11:20:31.390Z,6.73
2019-03-29T11:22:37.095Z,7.43
2019-03-29T11:24:42.786Z,6.80
2019-03-29T11:26:48.509Z,7.03
2019-03-29T11:28:54.227Z,7.27
2019-03-29T11:31:00.033Z,7.53
2019-03-29T11:33:06.003Z,7.67
2019-03-29T11:35:11.784Z,7.00
2019-03-29T11:37:20.470Z,7.30
2019-03-29T11:39:27.558Z,6.20
2019-03-29T11:41:33.501Z,7.37
2019-03-29T11:43:39.196Z,7.47
2019-03-29T11:45:44.937Z,8.03
2019-03-29T11:47:50.740Z,6.70
2019-03-29T11:49:56.494Z,8.10
2019-03-29T11:52:02.254Z,7.10
2019-03-29T11:54:08.074Z,6.23
2019-03-29T11:56:13.761Z,7.33
2019-03-29T11:58:19.592Z,8.17
2019-03-29T12:00:35.700Z,7.63
2019-03-29T12:02:41.482Z,7.37
2019-03-29T12:04:47.190Z,6.90
2019-03-29T12:06:52.918Z,7.30
2019-03-29T12:08:58.679Z,7.80
2019-03-29T12:11:04.686Z,8.53
2019-03-29T12:13:10.689Z,6.97
2019-03-29T12:15:16.830Z,7.17
2019-03-29T12:17:22.603Z,7.30
2019-03-29T12:19:29.783Z,7.53
2019-03-29T12:21:35.511Z,7.50
2019-03-29T12:23:41.240Z,8.50
2019-03-29T12:25:47.035Z,8.13
2019-03-29T12:27:52.775Z,7.20
2019-03-29T12:29:58.486Z,7.60
2019-03-29T12:32:04.393Z,7.90
2019-03-29T12:34:10.183Z,7.40
2019-03-29T12:36:15.934Z,8.50
2019-03-29T12:38:21.681Z,8.43
2019-03-29T12:40:27.380Z,7.70
2019-03-29T12:42:34.922Z,8.60
2019-03-29T12:44:40.620Z,8.07
2019-03-29T12:46:46.326Z,8.07
2019-03-29T12:48:52.066Z,7.40
2019-03-29T12:50:57.763Z,7.20
2019-03-29T12:53:03.519Z,7.07
2019-03-29T12:55:09.440Z,7.63
2019-03-29T12:57:15.121Z,7.33
2019-03-29T12:59:20.845Z,8.50
2019-03-29T13:01:38.591Z,8.13
2019-03-29T13:03:34.322Z,8.90
2019-03-29T13:05:40.116Z,8.23
2019-03-29T13:07:45.893Z,7.87
2019-03-29T13:09:51.627Z,8.10
2019-03-29T13:11:57.355Z,8.17
2019-03-29T13:14:10.001Z,8.40
2019-03-29T13:16:10.508Z,7.03
2019-03-29T13:18:16.946Z,8.63
2019-03-29T13:20:22.701Z,8.97
2019-03-29T13:22:28.560Z,8.03
2019-03-29T13:24:34.259Z,8.13
2019-03-29T13:26:41.750Z,7.50
2019-03-29T13:28:49.783Z,9.10
2019-03-29T13:30:55.533Z,7.80
2019-03-29T13:33:01.303Z,9.80
2019-03-29T13:35:07.662Z,7.73
2019-03-29T13:37:13.378Z,7.70
2019-03-29T13:39:19.127Z,8.43
2019-03-29T13:41:24.819Z,9.23
2019-03-29T13:43:30.620Z,7.93
2019-03-29T13:45:36.330Z,7.93
2019-03-29T13:47:45.159Z,8.00
2019-03-29T13:49:50.846Z,9.90
2019-03-29T13:51:56.558Z,8.90
2019-03-29T13:54:02.366Z,9.10
2019-03-29T13:56:08.157Z,10.00
2019-03-29T13:58:13.970Z,8.37
2019-03-29T14:00:19.816Z,8.63
2019-03-29T14:02:25.619Z,9.43
2019-03-29T14:04:31.379Z,9.00
2019-03-29T14:06:37.102Z,8.80
2019-03-29T14:08:42.810Z,9.10
2019-03-29T14:10:50.066Z,9.30
2019-03-29T14:12:57.451Z,8.20
2019-03-29T14:15:05.456Z,9.27
2019-03-29T14:17:13.831Z,8.50
2019-03-29T14:19:27.199Z,9.40
2019-03-29T14:21:38.021Z,8.07
2019-03-29T14:23:49.126Z,8.87
2019-03-29T14:25:59.383Z,8.40
2019-03-29T14:28:15.099Z,8.60
2019-03-29T14:30:26.488Z,8.17
2019-03-29T14:32:47.767Z,8.10
2019-03-29T14:35:22.386Z,7.93
2019-03-29T14:37:33.242Z,8.90
2019-03-29T14:39:42.067Z,8.37
2019-03-29T14:41:57.898Z,8.50
2019-03-29T14:44:03.681Z,8.17
2019-03-29T14:46:09.414Z,8.70
2019-03-29T14:48:15.127Z,9.20
2019-03-29T14:50:20.914Z,8.07
2019-03-29T14:52:26.626Z,8.10
2019-03-29T14:54:32.355Z,8.37
2019-03-29T14:56:38.113Z,8.50
2019-03-29T14:58:43.834Z,8.80
2019-03-29T15:00:49.594Z,8.80
2019-03-29T15:02:55.342Z,9.87
2019-03-29T15:05:01.427Z,10.30
2019-03-29T15:07:07.154Z,9.83
2019-03-29T15:09:12.966Z,8.87
2019-03-29T15:11:22.519Z,7.03
2019-03-29T15:13:26.395Z,8.90
2019-03-29T15:15:32.110Z,7.90
2019-03-29T15:17:38.161Z,8.85
2019-03-29T15:19:43.967Z,8.30
2019-03-29T15:21:49.672Z,9.70
2019-03-29T15:23:55.667Z,8.43
2019-03-29T15:26:01.764Z,7.97
2019-03-29T15:28:07.806Z,8.90
2019-03-29T15:30:14.302Z,8.95
2019-03-29T15:32:20.302Z,8.35
2019-03-29T15:34:26.307Z,9.53
2019-03-29T15:36:32.285Z,8.85
2019-03-29T15:38:38.297Z,8.93
2019-03-29T15:40:44.272Z,8.13
2019-03-29T15:42:50.312Z,8.45
2019-03-29T15:44:56.314Z,9.03
2019-03-29T15:47:02.343Z,9.10
2019-03-29T15:49:08.715Z,8.93
2019-03-29T15:51:14.820Z,8.78
2019-03-29T15:53:20.895Z,8.10
2019-03-29T15:55:26.918Z,7.20
2019-03-29T15:57:32.906Z,8.13
2019-03-29T15:59:38.898Z,6.85
2019-03-29T16:01:44.901Z,8.65
2019-03-29T16:03:51.138Z,8.18
2019-03-29T16:05:57.212Z,7.58
2019-03-29T16:08:03.226Z,7.70
2019-03-29T16:10:09.528Z,8.68
2019-03-29T16:12:18.633Z,8.05
2019-03-29T16:14:24.726Z,8.08
2019-03-29T16:16:30.746Z,7.00
2019-03-29T16:18:36.766Z,8.93
2019-03-29T16:20:42.858Z,7.25
2019-03-29T16:22:48.865Z,7.22
2019-03-29T16:24:54.847Z,7.50
2019-03-29T16:27:00.936Z,11.97
2019-03-29T16:29:07.005Z,9.50
2019-03-29T16:31:12.989Z,9.93
2019-03-29T16:33:22.081Z,8.10
2019-03-29T16:35:28.171Z,8.23
2019-03-29T16:37:34.181Z,7.42
2019-03-29T16:39:40.222Z,7.90
2019-03-29T16:41:46.212Z,7.35
2019-03-29T16:43:52.258Z,7.35
2019-03-29T16:45:58.267Z,8.20
2019-03-29T16:48:06.677Z,8.08
2019-03-29T16:50:12.032Z,8.98
2019-03-29T16:52:18.040Z,9.40
2019-03-29T16:54:25.859Z,7.53
2019-03-29T16:56:32.051Z,9.20
2019-03-29T16:58:38.026Z,8.18
2019-03-29T17:00:44.020Z,7.78
2019-03-29T17:02:50.054Z,8.73
2019-03-29T17:04:56.105Z,7.65
2019-03-29T17:07:02.119Z,7.87
2019-03-29T17:09:08.580Z,7.97
2019-03-29T17:11:14.586Z,7.70
2019-03-29T17:13:20.730Z,7.47
2019-03-29T17:15:29.303Z,7.45
2019-03-29T17:17:35.326Z,7.10
2019-03-29T17:19:41.382Z,6.87
2019-03-29T17:21:47.373Z,6.83
2019-03-29T17:23:53.320Z,6.33
2019-03-29T17:25:59.319Z,7.28
2019-03-29T17:28:05.474Z,7.05
2019-03-29T17:30:17.565Z,9.98
2019-03-29T17:32:29.263Z,12.30
2019-03-29T17:34:35.256Z,20.35
2019-03-29T17:36:41.247Z,30.17
2019-03-29T17:38:49.306Z,29.23
2019-03-29T17:40:55.394Z,27.07
2019-03-29T17:43:03.926Z,25.50
2019-03-29T17:45:11.761Z,21.12
2019-03-29T17:47:19.628Z,15.83
2019-03-29T17:49:25.684Z,14.50
2019-03-29T17:51:33.446Z,12.20
2019-03-29T17:53:42.350Z,12.18
2019-03-29T17:55:50.134Z,8.55
2019-03-29T17:57:56.528Z,8.20
2019-03-29T18:00:02.492Z,8.30
2019-03-29T18:02:09.809Z,8.45
2019-03-29T18:04:16.432Z,8.13
2019-03-29T18:06:22.446Z,8.70
2019-03-29T18:08:28.770Z,7.78
2019-03-29T18:10:34.842Z,9.15
2019-03-29T18:12:40.826Z,9.35
2019-03-29T18:14:46.818Z,14.58
2019-03-29T18:16:52.811Z,27.70
2019-03-29T18:18:58.851Z,33.40
2019-03-29T18:21:04.963Z,33.65
2019-03-29T18:23:11.138Z,39.75
2019-03-29T18:25:17.163Z,49.38
2019-03-29T18:27:23.274Z,48.98
2019-03-29T18:29:29.348Z,39.15
2019-03-29T18:31:36.274Z,20.75
2019-03-29T18:33:42.382Z,19.67
2019-03-29T18:35:48.562Z,16.85
2019-03-29T18:37:55.130Z,14.10
2019-03-29T18:40:03.448Z,9.08
2019-03-29T18:42:09.751Z,9.63
2019-03-29T18:44:16.028Z,8.58
2019-03-29T18:46:22.659Z,7.37
2019-03-29T18:48:28.768Z,7.75
2019-03-29T18:50:35.273Z,6.95
2019-03-29T18:52:44.355Z,7.30
2019-03-29T18:54:50.724Z,7.47
2019-03-29T18:56:56.751Z,15.60
2019-03-29T18:59:02.802Z,18.65
2019-03-29T19:01:08.782Z,11.73
2019-03-29T19:03:14.772Z,17.70
2019-03-29T19:05:27.800Z,10.68
2019-03-29T19:07:33.970Z,10.30
2019-03-29T19:09:40.024Z,8.83
2019-03-29T19:11:46.176Z,7.72
2019-03-29T19:13:53.673Z,6.90
2019-03-29T19:16:00.007Z,6.92
2019-03-29T19:18:08.807Z,6.47
2019-03-29T19:20:26.559Z,6.85
2019-03-29T19:22:24.010Z,7.03
2019-03-29T19:24:30.264Z,7.12
2019-03-29T19:26:36.482Z,7.47
2019-03-29T19:28:46.650Z,7.37
2019-03-29T19:30:53.901Z,6.37
2019-03-29T19:33:06.155Z,6.12
2019-03-29T19:35:14.208Z,8.20
2019-03-29T19:37:20.888Z,7.47
2019-03-29T19:39:27.799Z,7.75
2019-03-29T19:41:34.022Z,7.25
2019-03-29T19:43:40.438Z,7.33
2019-03-29T19:45:46.563Z,8.35
2019-03-29T19:47:53.133Z,9.35
2019-03-29T19:49:59.490Z,7.15
2019-03-29T19:52:06.296Z,7.28
2019-03-29T19:54:12.614Z,8.28
2019-03-29T19:56:21.687Z,8.13
2019-03-29T19:58:28.423Z,8.93
2019-03-29T20:00:42.599Z,7.58
2019-03-29T20:02:49.174Z,7.75
2019-03-29T20:04:57.310Z,7.90
2019-03-29T20:07:04.222Z,8.93
2019-03-29T20:09:10.856Z,9.10
2019-03-29T20:11:17.055Z,7.30
2019-03-29T20:13:23.111Z,7.85
2019-03-29T20:15:29.280Z,7.60
2019-03-29T20:17:36.298Z,9.15
2019-03-29T20:19:42.692Z,7.25
2019-03-29T20:21:50.901Z,7.85
2019-03-29T20:23:57.072Z,8.13
2019-03-29T20:26:03.302Z,8.95
2019-03-29T20:28:12.857Z,8.25
2019-03-29T20:30:21.917Z,8.48
2019-03-29T20:32:27.977Z,8.58
2019-03-29T20:34:34.344Z,7.65
2019-03-29T20:36:40.551Z,7.97
2019-03-29T20:38:46.527Z,8.05
2019-03-29T20:40:54.202Z,9.03
2019-03-29T20:43:01.319Z,8.35
2019-03-29T20:45:07.626Z,9.35
2019-03-29T20:47:16.706Z,8.88
2019-03-29T20:49:24.179Z,8.70
2019-03-29T20:51:30.407Z,7.55
2019-03-29T20:53:37.548Z,9.35
2019-03-29T20:55:44.457Z,7.87
2019-03-29T20:57:53.217Z,8.48
2019-03-29T20:59:59.479Z,9.25
2019-03-29T21:02:09.598Z,8.05
2019-03-29T21:04:20.608Z,8.58
2019-03-29T21:06:26.864Z,9.03
2019-03-29T21:08:33.140Z,8.38
2019-03-29T21:10:54.923Z,9.30
2019-03-29T21:12:56.492Z,9.93
2019-03-29T21:15:02.494Z,9.08
2019-03-29T21:17:11.959Z,8.38
2019-03-29T21:19:18.900Z,8.45
2019-03-29T21:21:25.462Z,9.65
2019-03-29T21:23:31.847Z,8.85
2019-03-29T21:25:38.509Z,8.95
2019-03-29T21:27:44.494Z,9.60
2019-03-29T21:29:50.495Z,8.88
2019-03-29T21:31:57.926Z,8.23
2019-03-29T21:34:03.995Z,7.55
2019-03-29T21:36:09.998Z,9.60
2019-03-29T21:38:16.087Z,9.78
2019-03-29T21:40:22.126Z,9.75
2019-03-29T21:42:28.097Z,9.83
2019-03-29T21:44:34.208Z,9.10
2019-03-29T21:46:40.222Z,9.05
2019-03-29T21:48:46.218Z,9.03
2019-03-29T21:50:52.239Z,8.43
2019-03-29T21:52:58.316Z,8.20
2019-03-29T21:55:04.690Z,7.50
2019-03-29T21:57:10.748Z,8.75
2019-03-29T21:59:19.595Z,9.43
2019-03-29T22:01:25.582Z,9.60
2019-03-29T22:03:31.580Z,8.15
2019-03-29T22:05:37.591Z,9.18
2019-03-29T22:07:43.576Z,9.55
2019-03-29T22:09:57.966Z,8.45
2019-03-29T22:12:06.098Z,9.35
2019-03-29T22:14:12.099Z,9.28
2019-03-29T22:16:18.294Z,9.48
2019-03-29T22:18:37.297Z,8.68
2019-03-29T22:20:32.012Z,10.28
2019-03-29T22:22:38.138Z,8.75
2019-03-29T22:24:44.112Z,10.45
2019-03-29T22:26:50.291Z,8.70
2019-03-29T22:28:56.282Z,7.72
2019-03-29T22:31:02.264Z,8.95
2019-03-29T22:33:08.237Z,8.80
2019-03-29T22:35:14.237Z,10.30
2019-03-29T22:37:21.130Z,8.98
2019-03-29T22:39:27.087Z,9.63
2019-03-29T22:41:33.063Z,8.13
2019-03-29T22:43:39.068Z,9.50
2019-03-29T22:45:45.062Z,8.20
2019-03-29T22:47:51.031Z,9.23
2019-03-29T22:49:56.985Z,10.03
2019-03-29T22:52:02.947Z,7.75
2019-03-29T22:54:09.016Z,8.90
2019-03-29T22:56:14.978Z,8.15
2019-03-29T22:58:23.072Z,8.43
2019-03-29T23:00:36.505Z,10.23
2019-03-29T23:02:42.608Z,8.75
2019-03-29T23:04:48.715Z,8.75
2019-03-29T23:06:54.695Z,8.58
2019-03-29T23:09:00.646Z,8.35
2019-03-29T23:11:06.628Z,8.08
2019-03-29T23:13:12.606Z,8.43
2019-03-29T23:15:18.959Z,9.50
2019-03-29T23:17:24.934Z,7.97
2019-03-29T23:19:30.910Z,9.20
2019-03-29T23:21:36.918Z,8.78
2019-03-29T23:23:42.950Z,8.90
2019-03-29T23:25:48.924Z,7.30
2019-03-29T23:27:54.917Z,8.35
2019-03-29T23:30:01.069Z,7.90
2019-03-29T23:32:07.385Z,7.37
2019-03-29T23:34:13.388Z,7.87
2019-03-29T23:36:21.987Z,8.03
2019-03-29T23:38:28.026Z,7.62
2019-03-29T23:40:34.076Z,7.95
2019-03-29T23:42:40.154Z,7.78
2019-03-29T23:44:46.190Z,9.03
2019-03-29T23:46:52.242Z,8.95
2019-03-29T23:48:58.255Z,8.00
2019-03-29T23:51:04.233Z,7.65
2019-03-29T23:53:11.823Z,7.78
2019-03-29T23:55:17.798Z,8.58
2019-03-29T23:57:25.342Z,8.43
2019-03-29T23:59:31.326Z,8.80
